Terminal Aerodrome Forecast
Issued by NWS Wilmington, NC

Home | Current Version | Previous Version | Text Only | Print | Product List | Glossary On
Versions: 1 2 3 4 5 6 7 8 9 10 11 12 13 14 15 16 17 18 19 20 21 22 23 24 25
000
FTUS42 KILM 150800 AAA
TAFMYR
TAF AMD
KMYR 150803Z 1508/1606 03005KT P6SM BKN025 BKN040
     FM150900 04005KT P6SM BKN015
     FM151400 05007KT P6SM BKN020 BKN040
     FM152000 12008KT P6SM VCSH SCT025 BKN100
      AMD LTD TO CLD VIS AND WIND TIL 151100=

USA.gov is the U.S. government's official web portal to all federal, state and local government web resources and services.